Latest Weather Observations for Nhill Aerodrome

IDV60801

Issued at 1:05 pm EDT Tuesday 21 October 2014 (issued every 30 minutes, with the page automatically refreshed every 10 minutes)

About weather observations | Map of weather stations | Latest weather observations for VIC | Other Formats
Station Details ID: 078015 Name: NHILL AERODROME Lat: -36.31 Lon: 141.65 Height: 138.9 m
Data from the previous 72 hours. | See also: Recent months at Nhill Aerodrome
Date/Time
EDT
Temp
°C
App
Temp
°C
Dew
Point
Rel
Hum
%
Delta-T
°C
Wind Press
QNH
hPa
Press
MSL
hPa
Rain
since 9 am
mm
Dir
 
Spd
km/h
Gust
km/h
Spd
kts
Gust
kts
21/01:00pm 27.1 22.1 1.5 19 12.3 ENE 17 24 9 13 1023.3 1023.2 0.0
21/12:30pm 27.2 23.1 2.3 20 12.2 NE 13 20 7 11 1023.8 1023.7 0.0
21/12:00pm 25.2 20.5 3.2 24 10.8 ENE 17 28 9 15 1024.1 1024.0 0.0
21/11:30am 23.9 19.0 4.3 28 9.7 ENE 19 26 10 14 1024.2 1024.1 0.0
21/11:00am 21.7 17.9 5.6 35 8.1 ENE 15 24 8 13 1024.5 1024.4 0.0
21/10:30am 19.6 15.9 6.3 42 6.7 ENE 15 22 8 12 1024.6 1024.5 0.0
21/10:00am 17.3 12.7 6.5 49 5.3 ENE 20 26 11 14 1024.6 1024.5 0.0
21/09:30am 16.0 11.0 6.4 53 4.7 ENE 22 32 12 17 1024.6 1024.5 0.0
21/09:00am 14.3 9.6 6.2 58 3.9 ENE 20 33 11 18 1024.6 1024.5 0.0
21/08:30am 12.5 7.9 5.4 62 3.3 E 19 26 10 14 1024.6 1024.5 0.0
21/08:00am 10.8 6.1 5.3 69 2.5 E 19 22 10 12 1024.5 1024.4 0.0
21/07:30am 9.6 4.7 5.2 74 2.0 E 20 28 11 15 1024.0 1023.9 0.0
21/07:00am 9.1 3.8 5.1 76 1.8 E 22 32 12 17 1023.4 1023.3 0.0
21/06:30am 9.1 3.1 5.3 77 1.7 E 26 33 14 18 1023.1 1023.0 0.0
21/06:00am 9.2 4.5 5.2 76 1.8 E 19 28 10 15 1023.4 1023.3 0.0
21/05:30am 9.7 5.5 5.5 75 1.9 E 17 22 9 12 1023.1 1023.0 0.0
21/05:00am 9.7 5.8 5.5 75 1.9 E 15 20 8 11 1023.2 1023.1 0.0
21/04:30am 10.0 5.7 5.4 73 2.1 E 17 22 9 12 1023.1 1023.0 0.0
21/04:00am 10.4 6.1 5.4 71 2.3 E 17 20 9 11 1023.3 1023.2 0.0
21/03:30am 10.9 6.3 5.7 70 2.4 E 19 24 10 13 1023.6 1023.5 0.0
21/03:00am 11.4 6.8 5.7 68 2.6 E 19 28 10 15 1023.9 1023.8 0.0
21/02:30am 11.4 7.5 5.3 66 2.8 E 15 20 8 11 1024.2 1024.1 0.0
21/02:00am 12.0 7.7 5.2 63 3.1 E 17 22 9 12 1024.2 1024.1 0.0
21/01:30am 12.9 8.0 5.3 60 3.6 E 20 26 11 14 1024.5 1024.4 0.0
21/01:00am 13.1 8.7 4.5 56 3.9 E 17 24 9 13 1024.7 1024.6 0.0
21/12:30am 14.0 9.0 4.6 53 4.4 E 20 24 11 13 1024.8 1024.7 0.0
21/12:00am 14.4 9.5 4.1 50 4.7 E 19 26 10 14 1024.8 1024.7 0.0
 
Date/Time
EDT
Temp
°C
App
Temp
°C
Dew
Point
Rel
Hum
%
Delta-T
°C
Wind Press
QNH
hPa
Press
MSL
hPa
Rain
since 9 am
mm
Dir
 
Spd
km/h
Gust
km/h
Spd
kts
Gust
kts
20/11:30pm 14.9 9.9 3.4 46 5.3 E 19 24 10 13 1024.9 1024.8 0.0
20/11:00pm 15.6 10.2 2.7 42 5.8 E 20 26 11 14 1025.0 1024.9 0.0
20/10:30pm 16.6 11.1 1.9 37 6.6 E 20 28 11 15 1025.0 1024.9 0.0
20/10:00pm 17.5 11.1 1.1 33 7.3 E 24 33 13 18 1024.9 1024.8 0.0
20/09:30pm 18.5 12.0 0.6 30 8.0 E 24 32 13 17 1024.7 1024.6 0.0
20/09:00pm 19.2 12.7 0.3 28 8.4 E 24 30 13 16 1024.3 1024.2 0.0
20/08:30pm 19.8 14.1 0.3 27 8.7 E 20 24 11 13 1024.0 1023.9 0.0
20/08:00pm 21.1 16.0 0.9 26 9.2 E 17 19 9 10 1023.9 1023.8 0.0
20/07:30pm 23.2 18.7 -0.3 21 10.7 ESE 13 17 7 9 1023.5 1023.4 0.0
20/07:00pm 25.0 19.8 -0.2 19 11.6 SE 17 20 9 11 1023.4 1023.3 0.0
20/06:30pm 25.5 20.3 0.2 19 11.8 SE 17 24 9 13 1023.3 1023.2 0.0
20/06:00pm 26.3 22.0 0.9 19 12.0 SE 13 20 7 11 1023.4 1023.3 0.0
20/05:30pm 26.8 21.5 -0.3 17 12.7 ESE 17 24 9 13 1023.5 1023.4 0.0
20/05:00pm 27.2 22.8 0.1 17 12.7 ESE 13 26 7 14 1023.5 1023.4 0.0
20/04:30pm 26.7 21.4 -0.3 17 12.6 SE 17 24 9 13 1023.8 1023.7 0.0
20/04:00pm 26.0 21.0 -0.9 17 12.3 ESE 15 26 8 14 1024.1 1024.0 0.0
20/03:30pm 25.9 21.3 -1.0 17 12.3 E 13 22 7 12 1024.4 1024.3 0.0
20/03:00pm 24.8 19.9 -0.4 19 11.5 ESE 15 26 8 14 1024.7 1024.6 0.0
20/02:30pm 24.6 19.6 -1.3 18 11.7 ESE 15 24 8 13 1025.2 1025.1 0.0
20/02:00pm 23.4 17.9 -2.2 18 11.2 ESE 17 26 9 14 1025.6 1025.6 0.0
20/01:30pm 23.4 18.1 -0.8 20 10.9 ESE 17 26 9 14 1025.9 1025.9 0.0
20/01:00pm 22.8 16.6 -0.6 21 10.5 ESE 22 33 12 18 1026.4 1026.4 0.0
20/12:30pm 21.3 15.3 1.0 26 9.3 ESE 22 35 12 19 1026.8 1026.8 0.0
20/12:00pm 19.6 14.0 1.1 29 8.3 ESE 20 26 11 14 1027.3 1027.3 0.0
20/11:30am 18.9 13.6 1.9 32 7.8 ESE 19 28 10 15 1027.8 1027.8 0.0
20/11:00am 18.0 12.6 2.3 35 7.1 ESE 20 33 11 18 1027.8 1027.8 0.0
20/10:30am 16.2 9.7 2.9 41 6.1 E 26 33 14 18 1028.0 1028.0 0.0
20/10:00am 15.5 9.5 3.3 44 5.6 ESE 24 33 13 18 1028.4 1028.3 0.0
20/09:30am 13.8 7.2 4.4 53 4.4 E 28 35 15 19 1028.1 1028.1 0.0
20/09:00am 13.0 6.6 5.4 60 3.5 E 28 35 15 19 1027.7 1027.7 0.0
20/08:30am 11.8 5.1 5.4 65 3.0 E 30 37 16 20 1027.3 1027.3 0.0
20/08:00am 10.8 5.6 5.3 69 2.5 ESE 22 33 12 18 1027.3 1027.3 0.0
20/07:30am 9.6 4.3 5.2 74 2.0 ESE 22 30 12 16 1027.0 1027.0 0.0
20/07:00am 9.3 2.9 5.3 76 1.8 ESE 28 43 15 23 1026.5 1026.5 0.0
20/06:30am 9.3 4.1 5.7 78 1.7 E 22 35 12 19 1026.1 1026.1 0.0
20/06:00am 9.5 4.0 6.0 79 1.6 ESE 24 30 13 16 1025.7 1025.7 0.0
20/05:30am 9.1 4.7 6.5 84 1.2 ESE 19 26 10 14 1025.7 1025.7 0.0
20/05:00am 8.6 5.3 6.4 86 1.0 ESE 13 20 7 11 1025.4 1025.3 0.0
20/04:30am 9.0 5.0 6.8 86 1.0 ESE 17 20 9 11 1025.0 1024.9 0.0
20/04:00am 8.8 5.6 6.8 87 0.9 SE 13 17 7 9 1025.1 1025.0 0.0
20/03:30am 8.9 6.0 6.5 85 1.1 SE 11 15 6 8 1025.3 1025.2 0.0
20/03:00am 9.2 6.3 6.6 84 1.2 SE 11 15 6 8 1025.3 1025.2 0.0
20/02:30am 9.9 6.4 7.2 83 1.3 SSE 15 20 8 11 1025.3 1025.2 0.0
20/02:00am 10.3 6.8 7.2 81 1.5 SSE 15 19 8 10 1025.4 1025.3 0.0
20/01:30am 10.9 7.1 7.4 79 1.7 SSE 17 22 9 12 1025.4 1025.3 0.0
20/01:00am 11.6 7.3 7.9 78 1.8 SSE 20 28 11 15 1025.0 1024.9 0.0
20/12:30am 12.0 7.3 7.9 76 2.0 SSE 22 28 12 15 1025.0 1024.9 0.0
20/12:00am 12.4 7.8 8.1 75 2.1 SSE 22 30 12 16 1025.0 1024.9 0.0
 
Date/Time
EDT
Temp
°C
App
Temp
°C
Dew
Point
Rel
Hum
%
Delta-T
°C
Wind Press
QNH
hPa
Press
MSL
hPa
Rain
since 9 am
mm
Dir
 
Spd
km/h
Gust
km/h
Spd
kts
Gust
kts
19/11:30pm 13.0 7.2 8.1 72 2.4 SSE 28 35 15 19 1024.9 1024.8 0.0
19/11:00pm 13.5 7.7 8.1 70 2.7 SSE 28 37 15 20 1024.7 1024.6 0.0
19/10:30pm 14.0 8.1 9.0 72 2.6 SSE 30 37 16 20 1024.4 1024.3 0.0
19/10:00pm 14.6 9.9 9.4 71 2.7 S 24 35 13 19 1024.3 1024.2 0.0
19/09:30pm 15.3 10.8 9.9 70 2.8 S 24 32 13 17 1023.9 1023.8 0.0
19/09:00pm 16.0 12.0 10.5 70 2.9 S 22 32 12 17 1023.5 1023.4 0.0
19/08:30pm 16.8 11.4 10.9 68 3.2 S 30 37 16 20 1023.3 1023.2 0.0
19/08:00pm 17.8 11.7 11.6 67 3.4 S 35 48 19 26 1022.9 1022.8 0.0
19/07:30pm 20.6 14.0 11.2 55 5.2 S 37 50 20 27 1022.1 1022.0 0.0
19/07:00pm 24.0 17.2 10.7 43 7.4 S 37 54 20 29 1021.1 1021.0 0.0
19/06:58pm 25.1 18.4 9.8 38 8.5 SSW 35 54 19 29 1021.0 1020.9 0.0
19/06:30pm 27.8 20.9 6.6 26 11.3 SSW 32 39 17 21 1020.4 1020.4 0.0
19/06:00pm 29.3 21.4 2.5 18 13.3 WSW 33 44 18 24 1019.9 1019.9 0.0
19/05:30pm 30.3 22.6 -0.1 14 14.6 WSW 30 39 16 21 1019.5 1019.5 0.0
19/05:00pm 31.0 21.8 -1.7 12 15.3 WSW 37 46 20 25 1019.3 1019.2 0.0
19/04:30pm 31.3 22.3 -2.6 11 15.7 WSW 35 46 19 25 1019.2 1019.1 0.0
19/04:00pm 32.8 24.0 -1.5 11 16.3 WSW 35 48 19 26 1018.9 1018.8 0.0
19/03:53pm 32.7 23.6 -0.4 12 16.1 SW 37 48 20 26 1018.9 1018.8 0.0
19/03:30pm 33.3 25.7 -2.4 10 16.9 W 28 43 15 23 1018.8 1018.7 0.0
19/03:05pm 32.5 24.6 -1.7 11 16.2 WNW 30 50 16 27 1019.1 1019.0 0.0
19/03:00pm 32.8 24.2 -2.8 10 16.6 WSW 33 43 18 23 1019.1 1019.0 0.0
19/02:48pm 33.0 25.0 -2.6 10 16.7 W 30 48 16 26 1019.2 1019.1 0.0
19/02:30pm 32.7 24.2 -2.9 10 16.6 W 32 41 17 22 1019.3 1019.2 0.0
19/02:00pm 33.2 24.6 -2.5 10 16.8 WNW 33 48 18 26 1019.4 1019.4 0.0
19/01:30pm 32.7 23.7 -2.9 10 16.6 WNW 35 46 19 25 1019.5 1019.5 0.0
19/01:00pm 32.0 23.6 -2.1 11 16.0 NW 32 46 17 25 1019.7 1019.7 0.0
19/12:30pm 31.4 23.0 -2.6 11 15.8 NW 32 43 17 23 1020.1 1020.1 0.0
19/12:00pm 30.3 21.7 -2.2 12 15.0 NW 33 44 18 24 1020.5 1020.5 0.0
19/11:30am 28.5 20.5 -2.6 13 14.1 NW 30 39 16 21 1020.9 1020.8 0.0
19/11:00am 27.2 20.3 -2.6 14 13.3 NW 24 33 13 18 1021.1 1021.0 0.0
19/10:30am 26.1 20.0 -2.5 15 12.8 NNW 20 24 11 13 1021.2 1021.1 0.0
19/10:00am 25.0 18.9 -2.5 16 12.1 NNW 20 26 11 14 1021.2 1021.1 0.0
19/09:30am 24.1 18.2 -2.4 17 11.6 NW 19 24 10 13 1021.1 1021.0 0.0
19/09:00am 22.3 16.8 -2.4 19 10.7 NNW 17 26 9 14 1021.1 1021.0 0.0
19/08:30am 20.4 14.8 -2.6 21 9.7 N 17 26 9 14 1020.9 1020.8 0.0
19/08:00am 18.7 13.9 -2.8 23 8.9 N 13 17 7 9 1020.7 1020.6 0.0
19/07:30am 17.5 12.6 -3.3 24 8.4 N 13 19 7 10 1020.2 1020.2 0.0
19/07:00am 16.6 11.7 -3.5 25 8.0 N 13 19 7 10 1019.7 1019.7 0.0
19/06:30am 17.4 12.1 -3.4 24 8.4 N 15 26 8 14 1019.4 1019.4 0.0
19/06:00am 17.2 12.7 -3.5 24 8.3 N 11 17 6 9 1019.2 1019.1 0.0
19/05:30am 17.6 13.1 -3.2 24 8.5 NNE 11 17 6 9 1019.4 1019.4 0.0
19/05:00am 15.7 12.0 -2.7 28 7.4 NNE 7 11 4 6 1019.5 1019.5 0.0
19/04:30am 15.3 11.8 -2.6 29 7.2 NE 6 9 3 5 1019.6 1019.6 0.0
19/04:00am 15.0 11.6 -2.4 30 7.0 NNE 6 11 3 6 1019.8 1019.8 0.0
19/03:30am 17.5 13.4 -3.3 24 8.4 N 9 15 5 8 1020.1 1020.1 0.0
19/03:00am 19.9 15.4 -3.0 21 9.5 N 11 13 6 7 1020.2 1020.2 0.0
19/02:30am 20.2 15.4 -2.8 21 9.7 N 13 15 7 8 1020.3 1020.3 0.0
19/02:00am 20.5 15.7 -2.5 21 9.7 N 13 17 7 9 1020.8 1020.7 0.0
19/01:30am 20.4 15.6 -2.6 21 9.7 N 13 15 7 8 1021.1 1021.0 0.0
19/01:00am 21.1 15.9 -2.7 20 10.1 NNW 15 20 8 11 1021.4 1021.3 0.0
19/12:30am 21.1 16.0 -2.0 21 10.0 N 15 19 8 10 1021.3 1021.2 0.0
19/12:00am 21.7 16.9 -2.2 20 10.3 N 13 17 7 9 1021.3 1021.2 0.0
 
Date/Time
EDT
Temp
°C
App
Temp
°C
Dew
Point
Rel
Hum
%
Delta-T
°C
Wind Press
QNH
hPa
Press
MSL
hPa
Rain
since 9 am
mm
Dir
 
Spd
km/h
Gust
km/h
Spd
kts
Gust
kts
18/11:30pm 22.0 17.7 -2.0 20 10.4 N 11 17 6 9 1021.3 1021.2 0.0
18/11:00pm 22.3 17.5 -2.4 19 10.6 N 13 17 7 9 1021.3 1021.2 0.0
18/10:30pm 22.0 16.9 -2.0 20 10.4 W 15 20 8 11 1021.6 1021.5 0.0
18/10:00pm 22.4 18.0 -2.3 19 10.7 NNE 11 19 6 10 1021.1 1021.0 0.0
18/09:30pm 23.2 18.8 -2.4 18 11.2 N 11 15 6 8 1020.8 1020.7 0.0
18/09:00pm 23.9 19.5 -2.6 17 11.5 N 11 17 6 9 1020.7 1020.6 0.0
18/08:30pm 25.1 20.6 -3.3 15 12.4 N 11 15 6 8 1020.3 1020.3 0.0
18/08:00pm 26.5 22.0 -3.1 14 13.1 N 11 15 6 8 1020.0 1020.0 0.0
18/07:30pm 28.3 24.2 -2.7 13 14.0 N 9 15 5 8 1019.7 1019.7 0.0
18/07:00pm 29.7 24.1 -2.7 12 14.8 N 17 26 9 14 1019.6 1019.6 0.0
18/06:30pm 30.1 25.3 -2.4 12 15.0 N 13 20 7 11 1019.5 1019.5 0.0
18/06:00pm 30.4 24.5 -2.2 12 15.1 NNW 19 28 10 15 1019.4 1019.4 0.0
18/05:30pm 30.3 23.7 -3.4 11 15.3 NNW 22 30 12 16 1019.6 1019.6 0.0
18/05:00pm 31.0 23.8 -1.7 12 15.3 NNW 26 43 14 23 1019.5 1019.5 0.0
18/04:30pm 29.9 24.3 -2.6 12 14.9 N 17 28 9 15 1019.5 1019.5 0.0
18/04:00pm 30.1 24.6 -2.4 12 14.9 N 17 26 9 14 1019.7 1019.7 0.0
18/03:30pm 30.3 24.2 -2.2 12 15.1 N 20 32 11 17 1020.1 1020.1 0.0
18/03:00pm 28.9 22.8 -2.3 13 14.2 N 20 32 11 17 1020.7 1020.6 0.0
18/02:30pm 29.1 23.0 -2.1 13 14.4 N 20 32 11 17 1021.0 1020.9 0.0
18/02:00pm 28.2 21.8 -1.8 14 13.7 N 22 33 12 18 1021.3 1021.2 0.0
18/01:30pm 27.2 21.3 -2.6 14 13.4 N 19 28 10 15 1021.9 1021.8 0.0

Other Formats:

Comma delimited format used in spreadsheet applications
http://www.bom.gov.au/fwo/IDV60801/IDV60801.94827.axf

JavaScript Object Notation format (JSON) in row-major order
http://www.bom.gov.au/fwo/IDV60801/IDV60801.94827.json